createdAt,value
2019-01-02T03:31:03.526Z,76.80
2019-01-02T03:33:34.902Z,76.40
2019-01-02T03:36:04.822Z,77.90
2019-01-02T03:38:34.127Z,76.80
2019-01-02T03:41:03.380Z,76.20
2019-01-02T03:43:32.887Z,75.70
2019-01-02T03:46:02.185Z,75.50
2019-01-02T03:48:31.402Z,76.20
2019-01-02T03:51:00.873Z,76.30
2019-01-02T03:53:31.096Z,75.60
2019-01-02T03:56:00.351Z,76.00
2019-01-02T03:58:30.319Z,76.20
2019-01-02T04:01:00.141Z,75.70
2019-01-02T04:03:30.007Z,75.50
2019-01-02T04:05:59.320Z,75.20
2019-01-02T04:08:28.567Z,75.10
2019-01-02T04:10:58.440Z,74.50
2019-01-02T04:13:27.683Z,74.90
2019-01-02T04:15:56.993Z,74.50
2019-01-02T04:18:26.295Z,74.20
2019-01-02T04:20:55.811Z,74.10
2019-01-02T04:23:26.052Z,73.80
2019-01-02T04:25:56.027Z,74.10
2019-01-02T04:28:25.276Z,74.40
2019-01-02T04:30:54.540Z,73.90
2019-01-02T04:33:24.986Z,73.90
2019-01-02T04:35:54.713Z,74.30
2019-01-02T04:38:24.019Z,74.20
2019-01-02T04:40:53.267Z,74.30
2019-01-02T04:43:22.524Z,73.90
2019-01-02T04:45:52.493Z,74.00
2019-01-02T04:48:21.797Z,73.80
2019-01-02T04:50:51.611Z,73.70
2019-01-02T04:53:21.151Z,73.70
2019-01-02T04:55:50.459Z,73.30
2019-01-02T04:58:19.708Z,73.30
2019-01-02T05:00:49.264Z,73.30
2019-01-02T05:03:19.137Z,74.10
2019-01-02T05:05:48.855Z,73.90
2019-01-02T05:08:19.001Z,73.60
2019-01-02T05:10:48.412Z,73.50
2019-01-02T05:13:18.237Z,73.50
2019-01-02T05:15:47.540Z,73.20
2019-01-02T05:18:17.957Z,73.40
2019-01-02T05:20:47.209Z,73.20
2019-01-02T05:23:17.076Z,73.00
2019-01-02T05:25:47.616Z,72.70
2019-01-02T05:28:17.724Z,72.40
2019-01-02T05:30:47.333Z,72.50
2019-01-02T05:33:17.195Z,72.50
2019-01-02T05:35:46.453Z,72.60
2019-01-02T05:38:15.708Z,72.50
2019-01-02T05:40:46.255Z,71.90
2019-01-02T05:43:16.500Z,72.80
2019-01-02T05:45:45.799Z,72.90
2019-01-02T05:48:16.190Z,72.50
2019-01-02T05:50:45.948Z,72.50
2019-01-02T05:53:15.355Z,72.40
2019-01-02T05:55:45.179Z,72.50
2019-01-02T05:58:14.487Z,72.40
2019-01-02T06:00:44.207Z,72.20
2019-01-02T06:03:13.779Z,72.30
2019-01-02T06:05:43.084Z,71.90
2019-01-02T06:08:13.009Z,73.00
2019-01-02T06:10:43.571Z,72.40
2019-01-02T06:13:12.823Z,73.10
2019-01-02T06:15:43.775Z,72.10
2019-01-02T06:18:13.591Z,72.90
2019-01-02T06:20:42.893Z,72.30
2019-01-02T06:23:12.142Z,72.30
2019-01-02T06:25:41.438Z,72.30
2019-01-02T06:28:10.687Z,72.90
2019-01-02T06:30:40.808Z,73.10
2019-01-02T06:38:49.399Z,73.10
2019-01-02T06:41:19.488Z,74.10
2019-01-02T06:43:49.511Z,74.20
2019-01-02T06:46:20.124Z,74.70
2019-01-02T06:48:50.760Z,74.40
2019-01-02T06:51:21.156Z,74.80
2019-01-02T06:53:51.019Z,74.80
2019-01-02T06:56:20.265Z,75.00
2019-01-02T06:58:49.564Z,74.30
2019-01-02T07:01:19.735Z,74.00
2019-01-02T07:03:50.131Z,74.00
2019-01-02T07:06:19.502Z,73.90
2019-01-02T07:08:49.077Z,73.50
2019-01-02T07:11:18.384Z,73.70
2019-01-02T07:13:48.306Z,74.00
2019-01-02T07:16:17.550Z,73.60
2019-01-02T07:18:47.427Z,72.90
2019-01-02T07:21:17.747Z,73.10
2019-01-02T07:23:47.048Z,72.50
2019-01-02T07:26:16.400Z,72.40
2019-01-02T07:28:46.219Z,72.40
2019-01-02T07:31:16.368Z,72.60
2019-01-02T07:33:48.868Z,72.00
2019-01-02T07:36:27.359Z,71.70
2019-01-02T07:39:08.653Z,71.90
2019-01-02T07:41:46.956Z,72.00
2019-01-02T07:44:31.679Z,71.60
2019-01-02T07:47:08.184Z,71.50
2019-01-02T07:49:46.611Z,71.10
2019-01-02T07:52:35.783Z,70.70
2019-01-02T07:55:27.656Z,71.00
2019-01-02T07:58:18.205Z,69.90
2019-01-02T08:01:07.481Z,70.10
2019-01-02T08:04:00.931Z,69.80
2019-01-02T08:06:42.415Z,68.70
2019-01-02T08:09:20.888Z,69.20
2019-01-02T08:12:10.184Z,68.50
2019-01-02T08:15:11.543Z,68.60
2019-01-02T08:18:05.204Z,68.50
2019-01-02T08:21:03.428Z,68.20
2019-01-02T08:23:44.279Z,68.10
2019-01-02T08:26:19.683Z,67.90
2019-01-02T08:28:52.543Z,67.70
2019-01-02T08:31:34.024Z,67.40
2019-01-02T08:34:26.061Z,67.20
2019-01-02T08:37:06.952Z,67.40
2019-01-02T08:39:55.000Z,67.40
2019-01-02T08:42:44.274Z,66.70
2019-01-02T08:45:50.812Z,66.50
2019-01-02T08:48:56.776Z,66.80
2019-01-02T08:51:59.802Z,65.80
2019-01-02T08:54:44.415Z,66.60
2019-01-02T08:57:31.468Z,66.40
2019-01-02T09:00:09.862Z,65.30
2019-01-02T09:02:48.354Z,65.60
2019-01-02T09:05:32.776Z,65.60
2019-01-02T09:08:14.146Z,65.10
2019-01-02T09:11:12.435Z,65.40
2019-01-02T09:13:50.759Z,65.20
2019-01-02T09:16:26.189Z,64.00
2019-01-02T09:18:59.039Z,63.30
2019-01-02T09:21:54.059Z,63.60
2019-01-02T09:24:45.056Z,63.30
2019-01-02T09:27:23.048Z,63.40
2019-01-02T09:30:25.783Z,63.00
2019-01-02T09:33:07.231Z,62.10
2019-01-02T09:35:45.560Z,62.30
2019-01-02T09:38:45.424Z,61.80
2019-01-02T09:41:20.788Z,60.40
2019-01-02T09:43:59.202Z,61.40
2019-01-02T09:46:40.711Z,60.80
2019-01-02T09:49:23.355Z,60.50
2019-01-02T09:52:12.258Z,60.20
2019-01-02T09:55:10.877Z,59.50
2019-01-02T09:58:01.423Z,58.90
2019-01-02T10:00:39.892Z,59.10
2019-01-02T10:03:21.583Z,59.10
2019-01-02T10:06:21.076Z,58.90
2019-01-02T10:08:53.628Z,58.50
2019-01-02T10:11:29.179Z,58.70
2019-01-02T10:14:16.523Z,58.40
2019-01-02T10:17:08.744Z,58.40
2019-01-02T10:20:10.642Z,57.80
2019-01-02T10:22:58.487Z,57.40
2019-01-02T10:25:46.739Z,57.30
2019-01-02T10:28:40.341Z,57.30
2019-01-02T10:31:32.729Z,57.20
2019-01-02T10:34:08.099Z,57.60
2019-01-02T10:37:03.608Z,57.00
2019-01-02T10:39:41.871Z,55.90
2019-01-02T10:42:49.268Z,56.00
2019-01-02T10:45:33.396Z,56.50
2019-01-02T10:48:17.907Z,55.60
2019-01-02T10:51:23.888Z,55.30
2019-01-02T10:54:08.187Z,55.90
2019-01-02T10:56:43.684Z,54.70
2019-01-02T10:59:25.028Z,55.00
2019-01-02T11:02:06.964Z,54.80
2019-01-02T11:04:56.044Z,54.10
2019-01-02T11:07:46.791Z,54.90
2019-01-02T11:10:22.202Z,54.60
2019-01-02T11:13:06.944Z,53.90
2019-01-02T11:16:03.819Z,53.00
2019-01-02T11:18:51.572Z,53.10
2019-01-02T11:21:36.043Z,53.20
2019-01-02T11:24:29.663Z,53.00
2019-01-02T11:27:18.748Z,51.70
2019-01-02T11:30:00.046Z,52.20
2019-01-02T11:32:55.176Z,53.30
2019-01-02T11:35:37.907Z,52.40
2019-01-02T11:38:25.517Z,52.40
2019-01-02T11:41:17.079Z,51.40
2019-01-02T11:44:21.330Z,50.90
2019-01-02T11:46:50.471Z,51.40
2019-01-02T11:49:21.262Z,51.50
2019-01-02T11:51:50.995Z,51.00
2019-01-02T11:54:21.067Z,49.30
2019-01-02T11:56:50.541Z,49.40
2019-01-02T11:59:20.183Z,49.40
2019-01-02T12:01:49.974Z,49.10
2019-01-02T12:04:20.543Z,48.40
2019-01-02T12:06:49.791Z,48.50
2019-01-02T12:09:19.120Z,47.90
2019-01-02T12:11:48.417Z,47.60
2019-01-02T12:14:18.552Z,48.10
2019-01-02T12:16:48.668Z,47.40
2019-01-02T12:19:17.975Z,47.00
2019-01-02T12:21:47.892Z,46.70
2019-01-02T12:24:18.831Z,47.10
2019-01-02T12:26:48.745Z,45.90
2019-01-02T12:29:18.764Z,46.20
2019-01-02T12:31:48.173Z,45.20
2019-01-02T12:34:17.481Z,45.00
2019-01-02T12:36:47.191Z,45.00
2019-01-02T12:39:17.066Z,44.30
2019-01-02T12:41:46.311Z,44.50
2019-01-02T12:44:15.906Z,43.70
2019-01-02T12:46:45.617Z,43.80
2019-01-02T12:49:15.612Z,43.80
2019-01-02T12:51:45.448Z,42.50
2019-01-02T12:54:14.951Z,41.80
2019-01-02T12:56:44.459Z,42.60
2019-01-02T12:59:16.761Z,41.00
2019-01-02T13:01:49.615Z,41.60
2019-01-02T13:04:27.934Z,41.30
2019-01-02T13:07:20.373Z,41.80
2019-01-02T13:09:53.353Z,41.20
2019-01-02T13:12:46.477Z,40.60
2019-01-02T13:15:19.098Z,40.50
2019-01-02T13:17:51.595Z,40.80
2019-01-02T13:20:39.175Z,40.90
2019-01-02T13:23:26.943Z,40.60
2019-01-02T13:26:05.366Z,40.20
2019-01-02T13:28:41.019Z,40.90
2019-01-02T13:31:42.076Z,40.20
2019-01-02T13:34:23.643Z,40.90
2019-01-02T13:37:17.232Z,40.60
2019-01-02T13:40:13.427Z,41.10
2019-01-02T13:42:46.331Z,41.70
2019-01-02T13:45:27.736Z,41.30
2019-01-02T13:48:21.280Z,41.60
2019-01-02T13:50:53.779Z,42.70
2019-01-02T13:53:24.472Z,43.80
2019-01-02T13:55:55.014Z,43.10
2019-01-02T13:58:24.176Z,43.60
2019-01-02T14:00:53.432Z,43.60
2019-01-02T14:03:22.736Z,44.10
2019-01-02T14:05:52.963Z,42.90
2019-01-02T14:08:22.256Z,43.30
2019-01-02T14:10:52.886Z,43.30
2019-01-02T14:13:23.248Z,43.40
2019-01-02T14:15:53.217Z,44.00
2019-01-02T14:18:22.464Z,44.80
2019-01-02T14:20:53.411Z,45.20
2019-01-02T14:23:23.219Z,45.90
2019-01-02T14:25:52.515Z,46.20
2019-01-02T14:28:21.759Z,46.40
2019-01-02T14:30:51.675Z,46.30
2019-01-02T14:33:21.543Z,46.40
2019-01-02T14:35:51.382Z,46.10
2019-01-02T14:38:20.938Z,46.00
2019-01-02T14:40:50.475Z,46.50
2019-01-02T14:43:20.391Z,46.60
2019-01-02T14:45:51.332Z,46.00
2019-01-02T14:48:20.575Z,45.40
2019-01-02T14:50:49.830Z,45.10
2019-01-02T14:53:19.120Z,44.90
2019-01-02T14:55:48.362Z,45.10
2019-01-02T14:58:17.613Z,45.10
2019-01-02T15:00:47.584Z,46.20
2019-01-02T15:03:18.258Z,48.10
2019-01-02T15:05:47.560Z,44.70
2019-01-02T15:08:16.928Z,44.60
2019-01-02T15:10:46.573Z,45.00
2019-01-02T15:13:16.900Z,45.70
2019-01-02T15:15:46.151Z,46.00
2019-01-02T15:18:15.701Z,46.10
2019-01-02T15:20:45.003Z,46.10
2019-01-02T15:23:14.258Z,46.40
2019-01-02T15:25:43.499Z,46.70
2019-01-02T15:28:13.732Z,46.50
2019-01-02T15:30:42.976Z,46.40
2019-01-02T15:33:14.053Z,47.00
2019-01-02T15:35:48.897Z,46.20
2019-01-02T15:38:15.369Z,46.30
2019-01-02T15:40:44.942Z,47.00
2019-01-02T15:43:14.907Z,47.10
2019-01-02T15:45:44.728Z,47.10
2019-01-02T15:48:13.979Z,47.50
2019-01-02T15:50:43.282Z,46.90
2019-01-02T15:53:12.782Z,47.00
2019-01-02T15:55:42.089Z,47.30
2019-01-02T15:58:12.210Z,47.30
2019-01-02T16:00:41.448Z,47.40
2019-01-02T16:03:12.383Z,47.30
2019-01-02T16:05:41.959Z,47.30
2019-01-02T16:08:11.919Z,47.00
2019-01-02T16:10:41.787Z,47.10
2019-01-02T16:13:11.082Z,47.20
2019-01-02T16:15:40.327Z,47.30
2019-01-02T16:18:10.199Z,47.30
2019-01-02T16:20:40.112Z,47.30
2019-01-02T16:23:09.984Z,47.60
2019-01-02T16:25:39.223Z,47.90
2019-01-02T16:28:08.467Z,48.40
2019-01-02T16:30:37.769Z,48.00
2019-01-02T16:33:07.020Z,47.50
2019-01-02T16:35:37.304Z,47.40
2019-01-02T16:38:06.872Z,47.50
2019-01-02T16:40:36.788Z,47.60
2019-01-02T16:43:07.460Z,47.90
2019-01-02T16:45:37.275Z,47.70
2019-01-02T16:48:07.453Z,48.00
2019-01-02T16:50:37.575Z,48.10
2019-01-02T16:53:07.439Z,48.40
2019-01-02T16:55:36.692Z,48.70
2019-01-02T16:58:06.807Z,48.40
2019-01-02T17:00:36.938Z,48.50
2019-01-02T17:03:06.436Z,48.40
2019-01-02T17:05:35.684Z,48.70
2019-01-02T17:08:04.975Z,48.50
2019-01-02T17:10:34.835Z,49.20
2019-01-02T17:13:04.760Z,48.60
2019-01-02T17:15:35.187Z,48.70
2019-01-02T17:18:04.424Z,48.60
2019-01-02T17:20:34.340Z,48.80
2019-01-02T17:23:04.231Z,48.90
2019-01-02T17:25:33.480Z,48.80
2019-01-02T17:28:02.719Z,49.20
2019-01-02T17:30:32.589Z,49.40
2019-01-02T17:33:01.832Z,49.10
2019-01-02T17:35:31.126Z,50.10
2019-01-02T17:38:00.653Z,50.00
2019-01-02T17:40:29.957Z,49.80
2019-01-02T17:43:00.721Z,50.10
2019-01-02T17:45:30.787Z,50.00
2019-01-02T17:48:00.699Z,50.30
2019-01-02T17:50:29.951Z,50.30
2019-01-02T17:52:59.255Z,50.30
2019-01-02T17:55:29.981Z,50.30
2019-01-02T17:57:59.274Z,50.50
2019-01-02T18:00:28.538Z,50.60
2019-01-02T18:02:57.819Z,50.50
2019-01-02T18:05:28.607Z,50.80
2019-01-02T18:07:57.852Z,50.60
2019-01-02T18:10:27.409Z,51.00
2019-01-02T18:12:57.328Z,51.00
2019-01-02T18:15:27.245Z,51.70
2019-01-02T18:17:57.113Z,51.00
2019-01-02T18:20:27.280Z,51.20
2019-01-02T18:22:56.523Z,51.40
2019-01-02T18:25:25.815Z,51.40
2019-01-02T18:27:56.001Z,51.30
2019-01-02T18:30:26.436Z,51.30
2019-01-02T18:32:56.040Z,51.60
2019-01-02T18:35:26.471Z,51.60
2019-01-02T18:37:55.720Z,51.90
2019-01-02T18:40:25.270Z,51.80
2019-01-02T18:42:55.808Z,52.20
2019-01-02T18:45:25.053Z,52.10
2019-01-02T18:47:54.351Z,52.10
2019-01-02T18:50:23.604Z,52.40
2019-01-02T18:52:53.423Z,52.50
2019-01-02T18:55:22.720Z,52.10
2019-01-02T18:57:52.636Z,52.40
2019-01-02T19:00:21.935Z,52.70
2019-01-02T19:02:51.443Z,52.90
2019-01-02T19:05:20.695Z,53.20
2019-01-02T19:07:49.987Z,52.80
2019-01-02T19:10:19.235Z,53.30
2019-01-02T19:12:48.486Z,52.90
2019-01-02T19:15:18.354Z,53.10
2019-01-02T19:17:47.595Z,53.50
2019-01-02T19:20:16.843Z,53.50
2019-01-02T19:22:47.543Z,53.40
2019-01-02T19:25:16.779Z,53.10
2019-01-02T19:27:46.696Z,53.40
2019-01-02T19:30:15.996Z,53.20
2019-01-02T19:32:45.520Z,54.10
2019-01-02T19:35:15.436Z,53.30
2019-01-02T19:37:44.739Z,53.30
2019-01-02T19:40:13.978Z,53.30
2019-01-02T19:42:44.762Z,53.60
2019-01-02T19:45:14.007Z,53.40
2019-01-02T19:47:43.583Z,53.60
2019-01-02T19:50:13.453Z,53.60
2019-01-02T19:52:43.620Z,53.60
2019-01-02T19:55:13.479Z,53.60
2019-01-02T19:57:43.655Z,53.70
2019-01-02T20:00:12.955Z,54.30
2019-01-02T20:02:42.199Z,54.10
2019-01-02T20:05:11.456Z,54.00
2019-01-02T20:07:42.387Z,54.10
2019-01-02T20:10:11.703Z,54.40
2019-01-02T20:12:41.309Z,53.80
2019-01-02T20:15:10.971Z,53.60
2019-01-02T20:17:40.788Z,53.80
2019-01-02T20:20:11.169Z,54.10
2019-01-02T20:22:40.679Z,54.30
2019-01-02T20:25:09.930Z,54.00
2019-01-02T20:27:40.088Z,53.90
2019-01-02T20:30:10.423Z,53.90
2019-01-02T20:32:40.739Z,54.20
2019-01-02T20:35:10.858Z,54.20
2019-01-02T20:37:41.594Z,54.40
2019-01-02T20:40:10.904Z,54.80
2019-01-02T20:42:40.151Z,54.60
2019-01-02T20:45:10.020Z,54.70
2019-01-02T20:47:40.232Z,54.80
2019-01-02T20:50:10.100Z,54.90
2019-01-02T20:52:39.351Z,55.00
2019-01-02T20:55:08.961Z,55.30
2019-01-02T20:57:38.259Z,55.50
2019-01-02T21:00:10.562Z,55.50
2019-01-02T21:02:39.799Z,55.90
2019-01-02T21:05:09.613Z,56.20
2019-01-02T21:07:39.980Z,56.20
2019-01-02T21:10:10.868Z,56.10
2019-01-02T21:12:40.738Z,56.10
2019-01-02T21:15:09.985Z,56.40
2019-01-02T21:17:39.232Z,56.30
2019-01-02T21:20:08.803Z,56.50
2019-01-02T21:22:38.064Z,56.50
2019-01-02T21:25:08.458Z,56.50
2019-01-02T21:27:38.438Z,56.90
2019-01-02T21:30:09.869Z,56.90
2019-01-02T21:32:39.439Z,56.90
2019-01-02T21:35:08.675Z,56.80
2019-01-02T21:37:39.214Z,57.10
2019-01-02T21:40:09.502Z,57.00
2019-01-02T21:42:38.792Z,57.70
2019-01-02T21:45:08.703Z,57.70
2019-01-02T21:47:38.839Z,57.50
2019-01-02T21:50:08.556Z,57.10
2019-01-02T21:52:37.846Z,57.40
2019-01-02T21:55:07.162Z,57.20
2019-01-02T21:57:37.116Z,57.10
2019-01-02T22:00:10.576Z,57.50
2019-01-02T22:02:40.400Z,57.10
2019-01-02T22:05:10.223Z,57.60
2019-01-02T22:07:40.137Z,57.40
2019-01-02T22:10:09.652Z,57.20
2019-01-02T22:12:39.831Z,57.10
2019-01-02T22:15:10.263Z,57.40
2019-01-02T22:17:40.551Z,57.50
2019-01-02T22:20:09.879Z,58.00
2019-01-02T22:22:40.566Z,58.00
2019-01-02T22:25:09.824Z,57.60
2019-01-02T22:27:40.458Z,58.80
2019-01-02T22:30:10.267Z,58.00
2019-01-02T22:32:39.573Z,58.00
2019-01-02T22:35:09.183Z,57.90
2019-01-02T22:37:39.150Z,58.10
2019-01-02T22:40:08.962Z,58.40
2019-01-02T22:42:38.843Z,58.10
2019-01-02T22:45:09.071Z,58.10
2019-01-02T22:47:38.656Z,58.20
2019-01-02T22:50:09.164Z,58.50
2019-01-02T22:52:39.952Z,58.70
2019-01-02T22:55:09.531Z,58.40
2019-01-02T22:57:40.776Z,58.60
2019-01-02T23:00:12.236Z,58.70
2019-01-02T23:02:44.854Z,58.50
2019-01-02T23:05:18.723Z,58.30
2019-01-02T23:08:05.817Z,58.20
2019-01-02T23:10:40.667Z,58.30
2019-01-02T23:13:28.168Z,58.30
